createdAt,value
2019-01-31T00:00:23.812Z,1.70
2019-01-31T00:03:30.939Z,1.60
2019-01-31T00:06:13.663Z,2.10
2019-01-31T00:09:13.553Z,2.37
2019-01-31T00:11:53.574Z,2.58
2019-01-31T00:15:00.668Z,2.47
2019-01-31T00:17:50.258Z,6.47
2019-01-31T00:20:36.233Z,6.22
2019-01-31T00:23:29.773Z,5.03
2019-01-31T00:26:09.767Z,5.03
2019-01-31T00:29:01.968Z,4.17
2019-01-31T00:31:42.030Z,4.07
2019-01-31T00:34:40.401Z,2.73
2019-01-31T00:37:17.539Z,2.40
2019-01-31T00:40:12.341Z,2.43
2019-01-31T00:42:49.344Z,2.20
2019-01-31T00:45:27.449Z,2.57
2019-01-31T00:48:07.544Z,2.20
2019-01-31T00:50:53.741Z,2.47
2019-01-31T00:53:47.420Z,3.77
2019-01-31T00:56:35.461Z,8.03
2019-01-31T00:59:29.308Z,8.67
2019-01-31T01:02:36.504Z,8.43
2019-01-31T01:05:16.623Z,7.53
2019-01-31T01:07:54.069Z,4.73
2019-01-31T01:10:28.381Z,3.80
2019-01-31T01:13:08.680Z,3.27
2019-01-31T01:15:46.113Z,3.87
2019-01-31T01:18:17.637Z,3.33
2019-01-31T01:20:57.334Z,2.30
2019-01-31T01:23:34.692Z,2.58
2019-01-31T01:26:17.966Z,2.58
2019-01-31T01:29:07.424Z,2.00
2019-01-31T01:31:58.057Z,2.53
2019-01-31T01:34:35.292Z,2.33
2019-01-31T01:37:06.833Z,2.30
2019-01-31T01:39:50.006Z,2.50
2019-01-31T01:42:39.515Z,3.27
2019-01-31T01:45:34.976Z,2.57
2019-01-31T01:48:15.218Z,2.70
2019-01-31T01:50:52.536Z,2.77
2019-01-31T01:53:44.948Z,3.03
2019-01-31T01:56:24.649Z,2.67
2019-01-31T01:59:22.731Z,2.70
2019-01-31T02:01:57.165Z,2.77
2019-01-31T02:04:34.242Z,2.22
2019-01-31T02:07:11.524Z,2.37
2019-01-31T02:09:45.852Z,2.20
2019-01-31T02:12:23.122Z,2.40
2019-01-31T02:15:09.606Z,2.30
2019-01-31T02:17:41.248Z,2.20
2019-01-31T02:20:18.355Z,2.20
2019-01-31T02:23:01.984Z,2.45
2019-01-31T02:25:48.260Z,2.20
2019-01-31T02:28:34.618Z,2.80
2019-01-31T02:31:06.163Z,2.43
2019-01-31T02:33:40.416Z,2.20
2019-01-31T02:36:23.693Z,2.17
2019-01-31T02:39:10.176Z,2.30
2019-01-31T02:41:41.762Z,2.10
2019-01-31T02:44:38.655Z,2.50
2019-01-31T02:47:39.960Z,2.90
2019-01-31T02:50:16.858Z,2.70
2019-01-31T02:52:53.501Z,2.75
2019-01-31T02:55:33.524Z,2.53
2019-01-31T02:58:10.761Z,2.30
2019-01-31T03:00:54.154Z,2.70
2019-01-31T03:03:31.357Z,2.30
2019-01-31T03:06:11.507Z,2.70
2019-01-31T03:08:54.826Z,2.62
2019-01-31T03:11:34.891Z,2.40
2019-01-31T03:14:10.252Z,2.30
2019-01-31T03:16:51.035Z,1.70
2019-01-31T03:19:39.170Z,2.10
2019-01-31T03:22:19.533Z,2.17
2019-01-31T03:24:53.838Z,2.13
2019-01-31T03:28:02.326Z,1.90
2019-01-31T03:31:07.884Z,1.90
2019-01-31T03:33:51.203Z,2.50
2019-01-31T03:36:40.634Z,2.15
2019-01-31T03:39:23.869Z,2.10
2019-01-31T03:41:55.414Z,1.60
2019-01-31T03:44:30.360Z,1.93
2019-01-31T03:47:13.728Z,2.43
2019-01-31T03:49:57.354Z,2.08
2019-01-31T03:52:52.975Z,2.07
2019-01-31T03:55:33.268Z,2.40
2019-01-31T03:58:13.584Z,2.20
2019-01-31T04:00:56.335Z,1.90
2019-01-31T04:03:48.367Z,1.90
2019-01-31T04:06:18.673Z,2.10
2019-01-31T04:08:46.996Z,2.00
2019-01-31T04:11:15.387Z,1.83
2019-01-31T04:13:43.727Z,1.80
2019-01-31T04:16:12.108Z,1.97
2019-01-31T04:18:40.507Z,2.10
2019-01-31T04:21:28.212Z,2.25
2019-01-31T04:23:56.554Z,1.87
2019-01-31T04:26:24.902Z,2.02
2019-01-31T04:28:53.242Z,2.00
2019-01-31T04:31:21.585Z,3.10
2019-01-31T04:33:49.981Z,2.85
2019-01-31T04:36:18.343Z,3.50
2019-01-31T04:38:46.721Z,3.23
2019-01-31T04:41:15.055Z,3.37
2019-01-31T04:43:43.444Z,4.17
2019-01-31T04:46:11.801Z,4.07
2019-01-31T04:48:40.148Z,3.87
2019-01-31T04:51:08.499Z,2.60
2019-01-31T04:53:36.866Z,3.33
2019-01-31T04:56:05.352Z,3.12
2019-01-31T04:58:33.683Z,2.67
2019-01-31T05:01:02.060Z,3.17
2019-01-31T05:03:30.388Z,2.97
2019-01-31T05:05:58.813Z,3.10
2019-01-31T05:08:27.155Z,2.27
2019-01-31T05:10:57.217Z,1.80
2019-01-31T05:13:25.559Z,2.30
2019-01-31T05:15:53.899Z,2.40
2019-01-31T05:18:22.330Z,3.27
2019-01-31T05:20:50.755Z,3.97
2019-01-31T05:23:19.083Z,2.90
2019-01-31T05:25:47.483Z,4.13
2019-01-31T05:28:15.919Z,4.90
2019-01-31T05:30:45.201Z,3.80
2019-01-31T05:33:13.587Z,2.73
2019-01-31T05:35:41.980Z,2.77
2019-01-31T05:38:10.375Z,2.77
2019-01-31T05:40:38.791Z,3.37
2019-01-31T05:43:07.132Z,2.70
2019-01-31T05:45:35.487Z,3.03
2019-01-31T05:48:03.899Z,3.20
2019-01-31T05:50:32.357Z,3.57
2019-01-31T05:53:00.692Z,2.65
2019-01-31T05:55:29.052Z,3.43
2019-01-31T05:57:57.393Z,3.00
2019-01-31T06:00:29.977Z,2.40
2019-01-31T06:02:58.316Z,3.10
2019-01-31T06:05:26.793Z,3.23
2019-01-31T06:07:55.226Z,2.98
2019-01-31T06:10:23.590Z,3.00
2019-01-31T06:12:51.905Z,3.17
2019-01-31T06:15:20.243Z,2.87
2019-01-31T06:17:48.659Z,2.90
2019-01-31T06:20:22.729Z,2.80
2019-01-31T06:22:51.061Z,2.90
2019-01-31T06:25:19.463Z,2.67
2019-01-31T06:27:47.813Z,3.60
2019-01-31T06:30:17.921Z,3.67
2019-01-31T06:32:46.634Z,3.05
2019-01-31T06:35:15.112Z,3.37
2019-01-31T06:37:43.498Z,3.63
2019-01-31T06:40:14.961Z,3.60
2019-01-31T06:42:43.310Z,3.40
2019-01-31T06:45:14.592Z,3.20
2019-01-31T06:47:42.963Z,3.30
2019-01-31T06:50:11.352Z,3.10
2019-01-31T06:52:39.745Z,2.40
2019-01-31T06:55:09.903Z,2.70
2019-01-31T06:57:38.254Z,2.27
2019-01-31T07:00:18.321Z,2.50
2019-01-31T07:02:47.428Z,3.15
2019-01-31T07:05:15.875Z,2.90
2019-01-31T07:07:44.314Z,4.20
2019-01-31T07:10:15.957Z,3.70
2019-01-31T07:12:44.287Z,3.30
2019-01-31T07:15:12.902Z,6.07
2019-01-31T07:17:42.370Z,5.13
2019-01-31T07:20:13.336Z,4.93
2019-01-31T07:22:41.700Z,4.70
2019-01-31T07:25:29.457Z,4.72
2019-01-31T07:27:58.091Z,4.00
2019-01-31T07:30:45.773Z,3.40
2019-01-31T07:33:33.473Z,4.27
2019-01-31T07:36:14.963Z,3.05
2019-01-31T07:38:43.314Z,2.83
2019-01-31T07:41:11.639Z,2.93
2019-01-31T07:43:39.996Z,2.80
2019-01-31T07:46:08.450Z,2.97
2019-01-31T07:48:36.807Z,3.33
2019-01-31T07:51:05.139Z,4.83
2019-01-31T07:53:33.482Z,5.23
2019-01-31T07:56:01.901Z,3.85
2019-01-31T07:58:30.263Z,5.20
2019-01-31T08:00:58.642Z,4.53
2019-01-31T08:03:27.067Z,4.33
2019-01-31T08:05:55.485Z,4.93
2019-01-31T08:08:23.922Z,5.30
2019-01-31T08:10:52.252Z,5.33
2019-01-31T08:13:20.616Z,4.50
2019-01-31T08:16:08.296Z,5.60
2019-01-31T08:18:55.993Z,5.40
2019-01-31T08:21:24.329Z,6.10
2019-01-31T08:23:52.708Z,5.20
2019-01-31T08:26:21.091Z,4.50
2019-01-31T08:28:49.436Z,3.73
2019-01-31T08:31:17.886Z,3.87
2019-01-31T08:33:46.225Z,4.07
2019-01-31T08:36:14.571Z,4.00
2019-01-31T08:38:42.940Z,4.20
2019-01-31T08:41:11.313Z,3.30
2019-01-31T08:43:39.644Z,3.77
2019-01-31T08:46:08.049Z,3.33
2019-01-31T08:48:36.386Z,3.77
2019-01-31T08:51:04.739Z,6.15
2019-01-31T08:53:33.078Z,5.20
2019-01-31T08:56:01.415Z,4.70
2019-01-31T08:58:29.766Z,4.10
2019-01-31T09:00:58.100Z,5.03
2019-01-31T09:03:26.487Z,4.50
2019-01-31T09:05:54.834Z,4.75
2019-01-31T09:08:23.184Z,4.70
2019-01-31T09:10:51.585Z,4.10
2019-01-31T09:13:19.980Z,3.70
2019-01-31T09:15:48.343Z,4.60
2019-01-31T09:18:16.679Z,6.30
2019-01-31T09:20:48.215Z,10.43
2019-01-31T09:23:28.303Z,10.47
2019-01-31T09:26:05.494Z,7.43
2019-01-31T09:29:08.225Z,8.88
2019-01-31T09:31:54.227Z,7.95
2019-01-31T09:34:49.629Z,10.83
2019-01-31T09:37:26.881Z,7.40
2019-01-31T09:40:04.179Z,4.73
2019-01-31T09:42:54.448Z,3.93
2019-01-31T09:45:34.522Z,4.17
2019-01-31T09:48:17.774Z,3.30
2019-01-31T09:51:22.497Z,3.50
2019-01-31T09:53:54.008Z,2.77
2019-01-31T09:56:28.135Z,3.67
2019-01-31T09:59:14.296Z,2.30
2019-01-31T10:02:08.068Z,2.23
2019-01-31T10:04:45.785Z,2.45
2019-01-31T10:07:19.878Z,2.63
2019-01-31T10:09:54.147Z,2.80
2019-01-31T10:12:59.536Z,2.77
2019-01-31T10:15:34.040Z,2.40
2019-01-31T10:18:26.658Z,2.37
2019-01-31T10:21:01.140Z,2.12
2019-01-31T10:23:44.742Z,2.47
2019-01-31T10:26:18.975Z,3.93
2019-01-31T10:29:09.271Z,4.30
2019-01-31T10:31:49.564Z,2.08
2019-01-31T10:34:41.870Z,2.20
2019-01-31T10:37:32.808Z,1.80
2019-01-31T10:40:25.054Z,2.00
2019-01-31T10:43:13.062Z,3.00
2019-01-31T10:45:44.605Z,1.73
2019-01-31T10:48:21.906Z,1.67
2019-01-31T10:51:01.775Z,1.70
2019-01-31T10:53:51.327Z,1.53
2019-01-31T10:56:30.984Z,1.77
2019-01-31T10:59:11.830Z,1.80
2019-01-31T11:01:55.249Z,1.63
2019-01-31T11:04:29.383Z,1.80
2019-01-31T11:07:06.444Z,1.63
2019-01-31T11:09:40.513Z,2.55
2019-01-31T11:12:37.401Z,1.75
2019-01-31T11:15:17.520Z,2.27
2019-01-31T11:18:08.383Z,2.27
2019-01-31T11:20:48.624Z,1.90
2019-01-31T11:23:35.205Z,2.17
2019-01-31T11:26:23.045Z,2.17
2019-01-31T11:29:03.529Z,1.55
2019-01-31T11:31:37.711Z,1.80
2019-01-31T11:34:36.231Z,1.60
2019-01-31T11:37:07.755Z,1.50
2019-01-31T11:39:41.840Z,1.27
2019-01-31T11:42:16.210Z,1.60
2019-01-31T11:45:15.926Z,1.30
2019-01-31T11:47:59.264Z,1.20
2019-01-31T11:50:42.425Z,1.33
2019-01-31T11:53:41.064Z,1.50
2019-01-31T11:56:38.852Z,1.70
2019-01-31T11:59:07.443Z,7.23
2019-01-31T12:01:36.143Z,1.50
2019-01-31T12:04:06.702Z,2.70
2019-01-31T12:06:35.125Z,1.40
2019-01-31T12:09:05.175Z,1.30
2019-01-31T12:11:33.522Z,1.33
2019-01-31T12:14:01.885Z,1.50
2019-01-31T12:16:30.207Z,1.43
2019-01-31T12:18:58.593Z,1.60
2019-01-31T12:21:26.908Z,1.33
2019-01-31T12:23:55.303Z,1.32
2019-01-31T12:26:23.656Z,1.50
2019-01-31T12:28:51.999Z,2.20
2019-01-31T12:31:20.332Z,1.60
2019-01-31T12:33:48.687Z,2.93
2019-01-31T12:36:17.047Z,1.80
2019-01-31T12:38:45.399Z,1.47
2019-01-31T12:41:13.847Z,1.70
2019-01-31T12:43:42.292Z,1.80
2019-01-31T12:46:10.628Z,1.52
2019-01-31T12:48:39.006Z,1.80
2019-01-31T12:51:07.458Z,1.37
2019-01-31T12:53:35.895Z,1.33
2019-01-31T12:56:04.829Z,1.57
2019-01-31T12:58:33.999Z,1.80
2019-01-31T13:01:02.453Z,1.40
2019-01-31T13:03:30.811Z,1.32
2019-01-31T13:05:59.221Z,1.40
2019-01-31T13:08:27.562Z,2.23
2019-01-31T13:10:55.940Z,1.30
2019-01-31T13:13:24.272Z,1.30
2019-01-31T13:15:52.636Z,1.30
2019-01-31T13:18:21.003Z,1.77
2019-01-31T13:20:49.423Z,1.30
2019-01-31T13:23:17.871Z,1.50
2019-01-31T13:25:46.357Z,1.30
2019-01-31T13:28:14.695Z,1.23
2019-01-31T13:30:43.034Z,1.40
2019-01-31T13:33:11.545Z,1.40
2019-01-31T13:35:39.917Z,1.93
2019-01-31T13:38:27.636Z,1.60
2019-01-31T13:40:56.049Z,1.67
2019-01-31T13:43:24.376Z,1.60
2019-01-31T13:45:52.800Z,1.50
2019-01-31T13:48:21.138Z,1.50
2019-01-31T13:50:49.512Z,1.65
2019-01-31T13:53:17.848Z,1.50
2019-01-31T13:55:46.229Z,1.40
2019-01-31T13:58:14.548Z,1.60
2019-01-31T14:00:42.948Z,1.15
2019-01-31T14:03:11.382Z,1.43
2019-01-31T14:05:39.814Z,1.37
2019-01-31T14:08:09.155Z,1.80
2019-01-31T14:10:37.577Z,1.40
2019-01-31T14:13:05.973Z,1.93
2019-01-31T14:15:35.372Z,1.40
2019-01-31T14:18:03.774Z,1.43
2019-01-31T14:20:51.501Z,1.53
2019-01-31T14:23:39.217Z,1.45
2019-01-31T14:26:07.680Z,1.60
2019-01-31T14:28:36.019Z,1.60
2019-01-31T14:31:04.378Z,1.27
2019-01-31T14:33:32.707Z,1.60
2019-01-31T14:36:01.231Z,2.70
2019-01-31T14:38:29.671Z,2.10
2019-01-31T14:40:58.035Z,2.10
2019-01-31T14:43:26.399Z,1.90
2019-01-31T14:45:54.764Z,1.90
2019-01-31T14:48:23.152Z,1.60
2019-01-31T14:50:51.726Z,1.40
2019-01-31T14:53:39.467Z,1.27
2019-01-31T14:56:21.104Z,1.25
2019-01-31T14:59:08.762Z,1.10
2019-01-31T15:01:56.524Z,1.00
2019-01-31T15:04:24.915Z,1.10
2019-01-31T15:06:53.487Z,1.10
2019-01-31T15:09:21.830Z,1.70
2019-01-31T15:11:50.200Z,1.30
2019-01-31T15:14:31.071Z,1.50
2019-01-31T15:16:50.597Z,1.10
2019-01-31T15:19:19.007Z,1.20
2019-01-31T15:21:48.190Z,1.60
2019-01-31T15:24:16.520Z,1.30
2019-01-31T15:26:44.904Z,1.30
2019-01-31T15:29:13.270Z,1.10
2019-01-31T15:31:41.661Z,1.17
2019-01-31T15:34:10.043Z,1.10
2019-01-31T15:36:38.592Z,1.10
2019-01-31T15:39:08.072Z,2.03
2019-01-31T15:41:36.453Z,1.80
2019-01-31T15:44:04.945Z,1.25
2019-01-31T15:46:33.358Z,1.70
2019-01-31T15:49:01.714Z,1.57
2019-01-31T15:51:30.100Z,2.10
2019-01-31T15:53:58.461Z,1.97
2019-01-31T15:56:26.832Z,1.50
2019-01-31T15:58:55.157Z,1.40
2019-01-31T16:01:23.572Z,1.50
2019-01-31T16:03:51.956Z,1.40
2019-01-31T16:06:20.737Z,1.50
2019-01-31T16:08:49.108Z,1.50
2019-01-31T16:11:17.524Z,1.83
2019-01-31T16:13:45.948Z,1.73
2019-01-31T16:16:14.437Z,1.70
2019-01-31T16:18:42.898Z,1.83
2019-01-31T16:21:11.271Z,1.85
2019-01-31T16:23:39.696Z,1.80
2019-01-31T16:26:08.040Z,2.08
2019-01-31T16:28:37.354Z,2.40
2019-01-31T16:31:05.810Z,3.10
2019-01-31T16:33:34.141Z,2.50
2019-01-31T16:36:02.944Z,2.37
2019-01-31T16:38:31.357Z,2.27
2019-01-31T16:40:59.726Z,2.10
2019-01-31T16:43:28.210Z,1.63
2019-01-31T16:45:56.590Z,1.80
2019-01-31T16:48:24.923Z,1.60
2019-01-31T16:50:53.313Z,1.90
2019-01-31T16:53:21.804Z,2.00
2019-01-31T16:55:50.216Z,1.63
2019-01-31T16:58:18.572Z,1.60
2019-01-31T17:00:47.052Z,2.53
2019-01-31T17:03:15.441Z,3.03
2019-01-31T17:05:43.917Z,2.75
2019-01-31T17:08:12.317Z,5.80
2019-01-31T17:10:40.696Z,3.60
2019-01-31T17:13:09.077Z,3.07
2019-01-31T17:15:37.812Z,2.22
2019-01-31T17:18:06.324Z,3.45
2019-01-31T17:20:37.753Z,3.37
2019-01-31T17:23:06.587Z,5.60
2019-01-31T17:25:35.037Z,6.13
2019-01-31T17:28:03.418Z,4.60
2019-01-31T17:30:31.833Z,3.77
2019-01-31T17:33:00.544Z,3.47
2019-01-31T17:35:29.028Z,2.20
2019-01-31T17:37:57.439Z,2.17
2019-01-31T17:40:31.108Z,1.43
2019-01-31T17:42:59.719Z,1.73
2019-01-31T17:45:30.676Z,1.50
2019-01-31T17:47:58.543Z,1.90
2019-01-31T17:50:26.973Z,2.05
2019-01-31T17:53:14.723Z,1.90
2019-01-31T17:55:56.508Z,2.27
2019-01-31T17:58:25.044Z,2.50
2019-01-31T18:01:12.720Z,2.90
2019-01-31T18:04:00.469Z,2.93
2019-01-31T18:06:28.838Z,2.43
2019-01-31T18:09:16.505Z,3.00
2019-01-31T18:11:57.571Z,2.85
2019-01-31T18:14:25.980Z,3.10
2019-01-31T18:16:54.306Z,2.70
2019-01-31T18:19:22.688Z,2.55
2019-01-31T18:21:51.020Z,3.77
2019-01-31T18:24:19.440Z,3.10
2019-01-31T18:26:47.853Z,4.03
2019-01-31T18:29:16.240Z,4.12
2019-01-31T18:31:44.617Z,4.50
2019-01-31T18:34:13.033Z,4.90
2019-01-31T18:36:42.283Z,7.37
2019-01-31T18:39:10.691Z,8.30
2019-01-31T18:41:39.076Z,8.10
2019-01-31T18:44:07.458Z,8.40
2019-01-31T18:46:35.820Z,8.28
2019-01-31T18:49:04.147Z,7.67
2019-01-31T18:51:32.563Z,9.40
2019-01-31T18:54:01.021Z,8.70
2019-01-31T18:56:29.497Z,8.90
2019-01-31T18:58:57.888Z,9.10
2019-01-31T19:01:26.269Z,10.40
2019-01-31T19:03:54.762Z,13.77
2019-01-31T19:06:23.193Z,13.70
2019-01-31T19:08:51.724Z,13.47
2019-01-31T19:11:20.139Z,12.25
2019-01-31T19:13:48.577Z,12.80
2019-01-31T19:16:36.306Z,13.30
2019-01-31T19:19:04.964Z,14.38
2019-01-31T19:21:33.304Z,16.30
2019-01-31T19:24:01.803Z,18.63
2019-01-31T19:26:30.723Z,19.47
2019-01-31T19:28:59.100Z,17.83
2019-01-31T19:31:27.447Z,17.13
2019-01-31T19:33:55.845Z,17.70
2019-01-31T19:36:24.846Z,18.07
2019-01-31T19:38:53.230Z,17.10
2019-01-31T19:41:21.609Z,17.13
2019-01-31T19:43:50.069Z,19.33
2019-01-31T19:46:18.472Z,17.40
2019-01-31T19:48:46.865Z,14.93
2019-01-31T19:51:15.257Z,18.50
2019-01-31T19:53:43.733Z,16.40
2019-01-31T19:56:12.073Z,15.35
2019-01-31T19:58:40.463Z,14.75
2019-01-31T20:01:08.910Z,14.03
2019-01-31T20:03:56.633Z,11.70
2019-01-31T20:06:25.006Z,12.13
2019-01-31T20:08:53.803Z,10.93
2019-01-31T20:11:22.273Z,12.50
2019-01-31T20:13:50.659Z,12.17
2019-01-31T20:16:28.412Z,13.10
2019-01-31T20:18:49.150Z,11.78
2019-01-31T20:21:36.862Z,12.20
2019-01-31T20:24:05.306Z,13.75
2019-01-31T20:26:33.644Z,16.07
2019-01-31T20:29:02.045Z,18.63
2019-01-31T20:31:30.428Z,19.48
2019-01-31T20:34:18.125Z,18.43
2019-01-31T20:37:05.850Z,16.23
2019-01-31T20:39:46.979Z,16.32
2019-01-31T20:42:15.359Z,17.70
2019-01-31T20:44:43.753Z,18.37
2019-01-31T20:47:12.097Z,19.55
2019-01-31T20:49:40.496Z,16.37
2019-01-31T20:52:09.798Z,16.17
2019-01-31T20:54:38.174Z,15.00
2019-01-31T20:57:06.514Z,12.60
2019-01-31T20:59:34.951Z,12.33
2019-01-31T21:02:03.359Z,9.88
2019-01-31T21:04:31.747Z,10.63
2019-01-31T21:07:00.143Z,9.10
2019-01-31T21:09:28.790Z,11.23
2019-01-31T21:11:57.256Z,9.98
2019-01-31T21:14:25.623Z,10.75
2019-01-31T21:16:53.958Z,9.77
2019-01-31T21:19:22.348Z,11.67
2019-01-31T21:21:50.761Z,13.67
2019-01-31T21:24:19.186Z,15.10
2019-01-31T21:26:47.513Z,15.88
2019-01-31T21:29:15.909Z,17.25
2019-01-31T21:31:45.219Z,17.73
2019-01-31T21:34:13.595Z,16.33
2019-01-31T21:36:41.984Z,15.83
2019-01-31T21:39:10.659Z,15.18
2019-01-31T21:41:39.027Z,14.77
2019-01-31T21:44:07.453Z,15.37
2019-01-31T21:46:35.789Z,15.40
2019-01-31T21:49:04.411Z,17.20
2019-01-31T21:51:32.746Z,13.80
2019-01-31T21:54:01.179Z,12.27
2019-01-31T21:56:29.567Z,13.30
2019-01-31T21:58:57.946Z,19.50
2019-01-31T22:01:26.318Z,13.70
2019-01-31T22:03:54.677Z,15.80
2019-01-31T22:06:23.070Z,14.93
2019-01-31T22:08:51.399Z,14.83
2019-01-31T22:11:19.892Z,15.87
2019-01-31T22:14:07.608Z,14.97
2019-01-31T22:16:49.215Z,13.50
2019-01-31T22:19:17.597Z,13.03
2019-01-31T22:21:45.956Z,11.87
2019-01-31T22:24:14.370Z,10.67
2019-01-31T22:26:42.814Z,11.33
2019-01-31T22:29:11.189Z,10.60
2019-01-31T22:31:39.514Z,11.18
2019-01-31T22:34:07.863Z,12.00
2019-01-31T22:36:36.266Z,11.73
2019-01-31T22:39:06.855Z,11.07
2019-01-31T22:41:35.367Z,11.40
2019-01-31T22:44:03.780Z,10.50
2019-01-31T22:46:32.148Z,10.73
2019-01-31T22:49:00.493Z,10.47
2019-01-31T22:51:28.859Z,8.97
2019-01-31T22:53:57.213Z,8.70
2019-01-31T22:56:25.612Z,9.63
2019-01-31T22:58:54.087Z,10.00
2019-01-31T23:01:27.605Z,10.70
2019-01-31T23:03:55.944Z,10.95
2019-01-31T23:06:24.746Z,10.17
2019-01-31T23:08:53.187Z,9.27
2019-01-31T23:11:21.563Z,9.23
2019-01-31T23:13:50.101Z,10.50
2019-01-31T23:16:18.514Z,8.98
2019-01-31T23:18:46.920Z,9.40
2019-01-31T23:21:15.371Z,9.60
2019-01-31T23:23:43.758Z,9.27
2019-01-31T23:26:12.167Z,10.83
2019-01-31T23:28:40.537Z,11.47
2019-01-31T23:31:08.915Z,10.17
2019-01-31T23:33:37.319Z,9.83
2019-01-31T23:36:05.733Z,9.53
2019-01-31T23:38:34.063Z,10.48
2019-01-31T23:41:03.292Z,11.17
2019-01-31T23:43:50.982Z,11.30
2019-01-31T23:46:32.487Z,10.83
2019-01-31T23:49:00.949Z,10.37
2019-01-31T23:51:29.303Z,11.00
2019-01-31T23:53:57.640Z,11.63
2019-01-31T23:56:26.077Z,11.55
2019-01-31T23:58:54.424Z,11.70
